sensor_id;sensor_type;location;lat;lon;timestamp;temperature;humidity
736;DHT22;352;48.626;9.238;2022-08-14T00:00:19;18.30;91.90
736;DHT22;352;48.626;9.238;2022-08-14T00:02:46;18.30;91.60
736;DHT22;352;48.626;9.238;2022-08-14T00:05:15;18.20;92.00
736;DHT22;352;48.626;9.238;2022-08-14T00:07:43;18.20;91.00
736;DHT22;352;48.626;9.238;2022-08-14T00:10:11;18.20;91.30
736;DHT22;352;48.626;9.238;2022-08-14T00:12:40;18.20;91.30
736;DHT22;352;48.626;9.238;2022-08-14T00:15:12;18.10;92.30
736;DHT22;352;48.626;9.238;2022-08-14T00:17:39;18.00;92.60
736;DHT22;352;48.626;9.238;2022-08-14T00:20:07;17.90;92.70
736;DHT22;352;48.626;9.238;2022-08-14T00:22:34;17.90;92.50
736;DHT22;352;48.626;9.238;2022-08-14T00:25:01;17.90;93.20
736;DHT22;352;48.626;9.238;2022-08-14T00:27:28;17.80;92.20
736;DHT22;352;48.626;9.238;2022-08-14T00:29:55;17.90;92.40
736;DHT22;352;48.626;9.238;2022-08-14T00:32:23;17.90;92.40
736;DHT22;352;48.626;9.238;2022-08-14T00:34:49;17.90;92.90
736;DHT22;352;48.626;9.238;2022-08-14T00:37:16;17.80;93.00
736;DHT22;352;48.626;9.238;2022-08-14T00:39:43;17.70;93.20
736;DHT22;352;48.626;9.238;2022-08-14T00:42:10;17.70;93.10
736;DHT22;352;48.626;9.238;2022-08-14T00:44:36;17.90;92.70
736;DHT22;352;48.626;9.238;2022-08-14T00:47:04;17.80;93.30
736;DHT22;352;48.626;9.238;2022-08-14T00:49:34;17.70;93.60
736;DHT22;352;48.626;9.238;2022-08-14T00:52:01;17.70;93.80
736;DHT22;352;48.626;9.238;2022-08-14T00:54:28;17.60;94.50
736;DHT22;352;48.626;9.238;2022-08-14T00:56:55;17.50;95.20
736;DHT22;352;48.626;9.238;2022-08-14T00:59:24;17.40;95.00
736;DHT22;352;48.626;9.238;2022-08-14T01:01:53;17.40;95.20
736;DHT22;352;48.626;9.238;2022-08-14T01:04:22;17.40;95.30
736;DHT22;352;48.626;9.238;2022-08-14T01:06:52;17.30;95.50
736;DHT22;352;48.626;9.238;2022-08-14T01:09:20;17.30;95.10
736;DHT22;352;48.626;9.238;2022-08-14T01:11:47;17.30;95.30
736;DHT22;352;48.626;9.238;2022-08-14T01:14:15;17.30;95.60
736;DHT22;352;48.626;9.238;2022-08-14T01:16:42;17.30;95.10
736;DHT22;352;48.626;9.238;2022-08-14T01:19:08;17.30;94.10
736;DHT22;352;48.626;9.238;2022-08-14T01:21:54;17.30;94.00
736;DHT22;352;48.626;9.238;2022-08-14T01:24:21;17.40;94.70
736;DHT22;352;48.626;9.238;2022-08-14T01:26:49;17.30;95.10
736;DHT22;352;48.626;9.238;2022-08-14T01:29:18;17.20;95.70
736;DHT22;352;48.626;9.238;2022-08-14T01:31:46;17.20;95.60
736;DHT22;352;48.626;9.238;2022-08-14T01:34:13;17.20;95.50
736;DHT22;352;48.626;9.238;2022-08-14T01:36:40;17.10;95.30
736;DHT22;352;48.626;9.238;2022-08-14T01:39:09;17.10;95.30
736;DHT22;352;48.626;9.238;2022-08-14T01:41:37;17.10;95.30
736;DHT22;352;48.626;9.238;2022-08-14T01:44:05;17.10;95.50
736;DHT22;352;48.626;9.238;2022-08-14T01:46:36;17.00;95.70
736;DHT22;352;48.626;9.238;2022-08-14T01:49:06;17.00;95.40
736;DHT22;352;48.626;9.238;2022-08-14T01:51:35;16.90;95.50
736;DHT22;352;48.626;9.238;2022-08-14T01:54:04;17.00;95.70
736;DHT22;352;48.626;9.238;2022-08-14T01:56:36;16.90;95.50
736;DHT22;352;48.626;9.238;2022-08-14T01:59:05;16.80;95.50
736;DHT22;352;48.626;9.238;2022-08-14T02:01:32;16.80;95.40
736;DHT22;352;48.626;9.238;2022-08-14T02:04:01;16.80;95.20
736;DHT22;352;48.626;9.238;2022-08-14T02:06:28;16.80;95.40
736;DHT22;352;48.626;9.238;2022-08-14T02:08:55;16.70;94.90
736;DHT22;352;48.626;9.238;2022-08-14T02:11:24;16.70;95.50
736;DHT22;352;48.626;9.238;2022-08-14T02:13:54;16.60;96.20
736;DHT22;352;48.626;9.238;2022-08-14T02:16:24;16.60;96.30
736;DHT22;352;48.626;9.238;2022-08-14T02:18:52;16.50;96.00
736;DHT22;352;48.626;9.238;2022-08-14T02:21:20;16.50;96.10
736;DHT22;352;48.626;9.238;2022-08-14T02:23:48;16.50;96.10
736;DHT22;352;48.626;9.238;2022-08-14T02:26:19;16.50;96.20
736;DHT22;352;48.626;9.238;2022-08-14T02:28:47;16.50;96.60
736;DHT22;352;48.626;9.238;2022-08-14T02:31:17;16.50;96.60
736;DHT22;352;48.626;9.238;2022-08-14T02:33:44;16.40;96.40
736;DHT22;352;48.626;9.238;2022-08-14T02:36:13;16.40;96.50
736;DHT22;352;48.626;9.238;2022-08-14T02:38:40;16.40;96.50
736;DHT22;352;48.626;9.238;2022-08-14T02:41:09;16.30;96.00
736;DHT22;352;48.626;9.238;2022-08-14T02:43:37;16.30;96.40
736;DHT22;352;48.626;9.238;2022-08-14T02:46:05;16.30;96.70
736;DHT22;352;48.626;9.238;2022-08-14T02:48:36;16.20;96.60
736;DHT22;352;48.626;9.238;2022-08-14T02:51:05;16.20;96.90
736;DHT22;352;48.626;9.238;2022-08-14T02:53:32;16.10;96.90
736;DHT22;352;48.626;9.238;2022-08-14T02:56:00;16.10;96.80
736;DHT22;352;48.626;9.238;2022-08-14T02:58:27;16.10;97.30
736;DHT22;352;48.626;9.238;2022-08-14T03:00:54;16.10;97.10
736;DHT22;352;48.626;9.238;2022-08-14T03:03:22;16.00;97.00
736;DHT22;352;48.626;9.238;2022-08-14T03:05:51;16.00;97.10
736;DHT22;352;48.626;9.238;2022-08-14T03:08:19;15.90;97.00
736;DHT22;352;48.626;9.238;2022-08-14T03:10:47;16.00;97.20
736;DHT22;352;48.626;9.238;2022-08-14T03:13:14;16.00;97.10
736;DHT22;352;48.626;9.238;2022-08-14T03:15:41;15.90;97.40
736;DHT22;352;48.626;9.238;2022-08-14T03:18:11;15.90;97.30
736;DHT22;352;48.626;9.238;2022-08-14T03:20:38;15.90;97.10
736;DHT22;352;48.626;9.238;2022-08-14T03:23:06;15.90;97.10
736;DHT22;352;48.626;9.238;2022-08-14T03:25:33;15.90;97.10
736;DHT22;352;48.626;9.238;2022-08-14T03:28:01;15.90;97.20
736;DHT22;352;48.626;9.238;2022-08-14T03:30:29;15.90;97.10
736;DHT22;352;48.626;9.238;2022-08-14T03:32:57;15.90;97.30
736;DHT22;352;48.626;9.238;2022-08-14T03:35:23;15.90;97.10
736;DHT22;352;48.626;9.238;2022-08-14T03:37:50;15.80;97.30
736;DHT22;352;48.626;9.238;2022-08-14T03:40:19;15.80;97.50
736;DHT22;352;48.626;9.238;2022-08-14T03:42:46;15.70;97.10
736;DHT22;352;48.626;9.238;2022-08-14T03:45:13;15.70;97.60
736;DHT22;352;48.626;9.238;2022-08-14T03:47:40;15.70;97.80
736;DHT22;352;48.626;9.238;2022-08-14T03:50:09;15.70;97.50
736;DHT22;352;48.626;9.238;2022-08-14T03:52:36;15.60;97.50
736;DHT22;352;48.626;9.238;2022-08-14T03:55:05;15.60;97.80
736;DHT22;352;48.626;9.238;2022-08-14T03:57:34;15.60;97.80
736;DHT22;352;48.626;9.238;2022-08-14T04:00:02;15.60;97.90
736;DHT22;352;48.626;9.238;2022-08-14T04:02:31;15.50;97.80
736;DHT22;352;48.626;9.238;2022-08-14T04:04:58;15.50;97.90
736;DHT22;352;48.626;9.238;2022-08-14T04:07:25;15.50;98.10
736;DHT22;352;48.626;9.238;2022-08-14T04:09:52;15.50;97.90
736;DHT22;352;48.626;9.238;2022-08-14T04:12:19;15.50;98.10
736;DHT22;352;48.626;9.238;2022-08-14T04:14:47;15.40;97.90
736;DHT22;352;48.626;9.238;2022-08-14T04:17:17;15.30;98.40
736;DHT22;352;48.626;9.238;2022-08-14T04:19:44;15.30;98.30
736;DHT22;352;48.626;9.238;2022-08-14T04:22:10;15.30;98.30
736;DHT22;352;48.626;9.238;2022-08-14T04:24:38;15.30;98.60
736;DHT22;352;48.626;9.238;2022-08-14T04:27:06;15.30;98.50
736;DHT22;352;48.626;9.238;2022-08-14T04:29:35;15.30;98.70
736;DHT22;352;48.626;9.238;2022-08-14T04:32:05;15.30;98.50
736;DHT22;352;48.626;9.238;2022-08-14T04:34:33;15.30;98.70
736;DHT22;352;48.626;9.238;2022-08-14T04:37:00;15.30;98.60
736;DHT22;352;48.626;9.238;2022-08-14T04:39:45;15.30;98.60
736;DHT22;352;48.626;9.238;2022-08-14T04:42:29;15.30;98.60
736;DHT22;352;48.626;9.238;2022-08-14T04:45:13;15.30;98.70
736;DHT22;352;48.626;9.238;2022-08-14T04:47:42;15.30;98.80
736;DHT22;352;48.626;9.238;2022-08-14T04:50:27;15.30;98.80
736;DHT22;352;48.626;9.238;2022-08-14T04:52:54;15.30;98.80
736;DHT22;352;48.626;9.238;2022-08-14T04:55:21;15.40;98.80
736;DHT22;352;48.626;9.238;2022-08-14T04:57:48;15.40;99.00
736;DHT22;352;48.626;9.238;2022-08-14T05:00:15;15.50;98.80
736;DHT22;352;48.626;9.238;2022-08-14T05:02:43;15.50;98.70
736;DHT22;352;48.626;9.238;2022-08-14T05:05:10;15.60;98.60
736;DHT22;352;48.626;9.238;2022-08-14T05:07:36;15.70;98.90
736;DHT22;352;48.626;9.238;2022-08-14T05:10:04;15.70;98.60
736;DHT22;352;48.626;9.238;2022-08-14T05:12:31;15.80;98.90
736;DHT22;352;48.626;9.238;2022-08-14T05:14:58;15.90;98.30
736;DHT22;352;48.626;9.238;2022-08-14T05:17:25;16.00;98.70
736;DHT22;352;48.626;9.238;2022-08-14T05:19:53;16.10;98.10
736;DHT22;352;48.626;9.238;2022-08-14T05:22:20;16.10;98.10
736;DHT22;352;48.626;9.238;2022-08-14T05:24:48;16.30;98.20
736;DHT22;352;48.626;9.238;2022-08-14T05:27:15;16.40;98.30
736;DHT22;352;48.626;9.238;2022-08-14T05:29:44;16.50;98.20
736;DHT22;352;48.626;9.238;2022-08-14T05:32:12;16.70;97.30
736;DHT22;352;48.626;9.238;2022-08-14T05:34:40;16.70;97.50
736;DHT22;352;48.626;9.238;2022-08-14T05:37:08;16.80;97.10
736;DHT22;352;48.626;9.238;2022-08-14T05:39:35;17.00;96.70
736;DHT22;352;48.626;9.238;2022-08-14T05:42:04;17.10;96.80
736;DHT22;352;48.626;9.238;2022-08-14T05:44:30;17.10;96.70
736;DHT22;352;48.626;9.238;2022-08-14T05:46:58;17.20;97.00
736;DHT22;352;48.626;9.238;2022-08-14T05:49:25;17.40;96.40
736;DHT22;352;48.626;9.238;2022-08-14T05:51:52;17.60;95.80
736;DHT22;352;48.626;9.238;2022-08-14T05:54:20;17.90;95.00
736;DHT22;352;48.626;9.238;2022-08-14T05:56:47;18.00;95.30
736;DHT22;352;48.626;9.238;2022-08-14T05:59:14;18.20;95.20
736;DHT22;352;48.626;9.238;2022-08-14T06:01:40;18.30;95.60
736;DHT22;352;48.626;9.238;2022-08-14T06:04:07;18.50;95.10
736;DHT22;352;48.626;9.238;2022-08-14T06:06:34;18.60;94.30
736;DHT22;352;48.626;9.238;2022-08-14T06:09:00;18.70;94.30
736;DHT22;352;48.626;9.238;2022-08-14T06:11:28;18.80;93.20
736;DHT22;352;48.626;9.238;2022-08-14T06:13:55;18.90;92.40
736;DHT22;352;48.626;9.238;2022-08-14T06:16:22;19.00;93.00
736;DHT22;352;48.626;9.238;2022-08-14T06:18:49;19.20;92.70
736;DHT22;352;48.626;9.238;2022-08-14T06:21:16;19.40;92.30
736;DHT22;352;48.626;9.238;2022-08-14T06:23:43;19.50;92.10
736;DHT22;352;48.626;9.238;2022-08-14T06:26:10;19.60;91.90
736;DHT22;352;48.626;9.238;2022-08-14T06:28:38;19.80;92.00
736;DHT22;352;48.626;9.238;2022-08-14T06:31:05;20.10;91.50
736;DHT22;352;48.626;9.238;2022-08-14T06:33:31;20.30;91.90
736;DHT22;352;48.626;9.238;2022-08-14T06:35:58;20.40;91.10
736;DHT22;352;48.626;9.238;2022-08-14T06:38:25;20.50;90.40
736;DHT22;352;48.626;9.238;2022-08-14T06:40:51;20.60;90.20
736;DHT22;352;48.626;9.238;2022-08-14T06:43:19;20.80;89.50
736;DHT22;352;48.626;9.238;2022-08-14T06:45:48;20.90;88.10
736;DHT22;352;48.626;9.238;2022-08-14T06:48:17;21.10;88.20
736;DHT22;352;48.626;9.238;2022-08-14T06:50:44;21.10;88.70
736;DHT22;352;48.626;9.238;2022-08-14T06:53:12;21.20;88.70
736;DHT22;352;48.626;9.238;2022-08-14T06:55:40;21.40;88.00
736;DHT22;352;48.626;9.238;2022-08-14T06:58:10;21.60;86.30
736;DHT22;352;48.626;9.238;2022-08-14T07:00:37;21.80;87.00
736;DHT22;352;48.626;9.238;2022-08-14T07:03:05;22.40;84.20
736;DHT22;352;48.626;9.238;2022-08-14T07:08:19;22.80;84.50
736;DHT22;352;48.626;9.238;2022-08-14T07:10:48;23.00;83.80
736;DHT22;352;48.626;9.238;2022-08-14T07:13:16;23.20;99.00
736;DHT22;352;48.626;9.238;2022-08-14T07:15:43;23.20;83.50
736;DHT22;352;48.626;9.238;2022-08-14T07:18:13;23.50;80.60
736;DHT22;352;48.626;9.238;2022-08-14T07:20:40;23.60;80.30
736;DHT22;352;48.626;9.238;2022-08-14T07:23:09;23.80;78.40
736;DHT22;352;48.626;9.238;2022-08-14T07:25:37;23.90;99.90
736;DHT22;352;48.626;9.238;2022-08-14T07:28:08;24.10;99.30
736;DHT22;352;48.626;9.238;2022-08-14T07:30:36;24.20;99.00
736;DHT22;352;48.626;9.238;2022-08-14T07:33:04;24.80;99.90
736;DHT22;352;48.626;9.238;2022-08-14T07:35:33;25.00;99.10
736;DHT22;352;48.626;9.238;2022-08-14T07:38:01;24.90;97.90
736;DHT22;352;48.626;9.238;2022-08-14T07:40:28;25.00;72.70
736;DHT22;352;48.626;9.238;2022-08-14T07:42:55;25.20;72.50
736;DHT22;352;48.626;9.238;2022-08-14T07:47:49;25.50;71.40
736;DHT22;352;48.626;9.238;2022-08-14T07:50:18;25.70;69.00
736;DHT22;352;48.626;9.238;2022-08-14T07:52:47;25.90;69.70
736;DHT22;352;48.626;9.238;2022-08-14T07:55:16;26.00;70.80
736;DHT22;352;48.626;9.238;2022-08-14T07:57:44;26.20;69.50
736;DHT22;352;48.626;9.238;2022-08-14T08:00:14;26.60;92.40
736;DHT22;352;48.626;9.238;2022-08-14T08:02:43;26.60;68.90
736;DHT22;352;48.626;9.238;2022-08-14T08:05:11;27.00;97.80
736;DHT22;352;48.626;9.238;2022-08-14T08:07:40;27.00;70.30
736;DHT22;352;48.626;9.238;2022-08-14T08:10:10;27.40;96.10
736;DHT22;352;48.626;9.238;2022-08-14T08:13:08;28.10;61.80
736;DHT22;352;48.626;9.238;2022-08-14T08:15:37;28.20;61.70
736;DHT22;352;48.626;9.238;2022-08-14T08:18:06;28.20;60.40
736;DHT22;352;48.626;9.238;2022-08-14T08:20:35;28.40;61.20
736;DHT22;352;48.626;9.238;2022-08-14T08:23:04;28.60;63.40
736;DHT22;352;48.626;9.238;2022-08-14T08:25:34;28.70;58.40
736;DHT22;352;48.626;9.238;2022-08-14T08:28:03;28.80;63.20
736;DHT22;352;48.626;9.238;2022-08-14T08:30:33;29.20;59.10
736;DHT22;352;48.626;9.238;2022-08-14T08:33:00;29.40;57.40
736;DHT22;352;48.626;9.238;2022-08-14T08:35:29;29.60;55.30
736;DHT22;352;48.626;9.238;2022-08-14T08:38:01;29.90;56.90
736;DHT22;352;48.626;9.238;2022-08-14T08:40:32;30.00;56.40
736;DHT22;352;48.626;9.238;2022-08-14T08:50:25;30.80;50.80
736;DHT22;352;48.626;9.238;2022-08-14T08:55:26;31.60;85.60
736;DHT22;352;48.626;9.238;2022-08-14T08:57:56;31.50;82.50
736;DHT22;352;48.626;9.238;2022-08-14T09:00:23;32.10;84.10
736;DHT22;352;48.626;9.238;2022-08-14T09:02:55;32.00;49.40
736;DHT22;352;48.626;9.238;2022-08-14T09:05:22;32.50;81.20
736;DHT22;352;48.626;9.238;2022-08-14T09:07:49;32.40;76.70
736;DHT22;352;48.626;9.238;2022-08-14T09:12:44;33.30;75.60
736;DHT22;352;48.626;9.238;2022-08-14T09:15:12;33.70;78.00
736;DHT22;352;48.626;9.238;2022-08-14T09:17:41;33.90;64.70
736;DHT22;352;48.626;9.238;2022-08-14T09:20:09;34.20;73.80
736;DHT22;352;48.626;9.238;2022-08-14T09:22:36;34.40;42.50
736;DHT22;352;48.626;9.238;2022-08-14T09:25:04;34.20;68.50
736;DHT22;352;48.626;9.238;2022-08-14T09:27:31;34.70;42.20
736;DHT22;352;48.626;9.238;2022-08-14T09:29:58;35.10;72.20
736;DHT22;352;48.626;9.238;2022-08-14T09:32:40;35.50;74.40
736;DHT22;352;48.626;9.238;2022-08-14T09:35:16;35.50;40.10
736;DHT22;352;48.626;9.238;2022-08-14T09:37:53;36.30;65.80
736;DHT22;352;48.626;9.238;2022-08-14T09:40:33;36.80;67.30
736;DHT22;352;48.626;9.238;2022-08-14T09:43:06;36.70;68.90
736;DHT22;352;48.626;9.238;2022-08-14T09:45:43;36.80;38.60
736;DHT22;352;48.626;9.238;2022-08-14T09:48:16;37.40;57.30
736;DHT22;352;48.626;9.238;2022-08-14T09:50:45;37.80;70.50
736;DHT22;352;48.626;9.238;2022-08-14T09:53:15;37.90;37.60
736;DHT22;352;48.626;9.238;2022-08-14T09:58:12;38.80;53.60
736;DHT22;352;48.626;9.238;2022-08-14T10:00:44;38.80;62.70
736;DHT22;352;48.626;9.238;2022-08-14T10:03:24;38.70;60.40
736;DHT22;352;48.626;9.238;2022-08-14T10:06:04;38.00;60.70
736;DHT22;352;48.626;9.238;2022-08-14T10:08:40;38.40;33.00
736;DHT22;352;48.626;9.238;2022-08-14T10:11:17;38.00;60.50
736;DHT22;352;48.626;9.238;2022-08-14T10:13:45;37.20;63.00
736;DHT22;352;48.626;9.238;2022-08-14T10:16:16;37.20;64.20
736;DHT22;352;48.626;9.238;2022-08-14T10:18:44;37.00;33.70
736;DHT22;352;48.626;9.238;2022-08-14T10:21:16;36.70;33.20
736;DHT22;352;48.626;9.238;2022-08-14T10:23:45;36.40;34.00
736;DHT22;352;48.626;9.238;2022-08-14T10:26:16;36.30;61.10
736;DHT22;352;48.626;9.238;2022-08-14T10:28:45;35.60;33.90
736;DHT22;352;48.626;9.238;2022-08-14T10:31:19;34.80;66.00
736;DHT22;352;48.626;9.238;2022-08-14T10:34:03;34.90;68.80
736;DHT22;352;48.626;9.238;2022-08-14T10:36:32;34.90;64.80
736;DHT22;352;48.626;9.238;2022-08-14T10:39:05;34.90;42.90
736;DHT22;352;48.626;9.238;2022-08-14T10:41:38;34.60;63.70
736;DHT22;352;48.626;9.238;2022-08-14T10:44:10;34.50;60.30
736;DHT22;352;48.626;9.238;2022-08-14T10:46:40;34.50;35.20
736;DHT22;352;48.626;9.238;2022-08-14T10:49:17;35.00;64.00
736;DHT22;352;48.626;9.238;2022-08-14T10:51:55;34.30;35.60
736;DHT22;352;48.626;9.238;2022-08-14T10:54:36;34.10;36.40
736;DHT22;352;48.626;9.238;2022-08-14T10:57:11;33.80;36.60
736;DHT22;352;48.626;9.238;2022-08-14T10:59:44;33.50;35.90
736;DHT22;352;48.626;9.238;2022-08-14T11:02:20;32.90;60.40
736;DHT22;352;48.626;9.238;2022-08-14T11:05:04;33.00;62.20
736;DHT22;352;48.626;9.238;2022-08-14T11:07:34;32.80;59.30
736;DHT22;352;48.626;9.238;2022-08-14T11:10:06;32.80;36.70
736;DHT22;352;48.626;9.238;2022-08-14T11:12:43;32.80;36.00
736;DHT22;352;48.626;9.238;2022-08-14T11:15:13;32.80;61.30
736;DHT22;352;48.626;9.238;2022-08-14T11:17:41;32.80;36.70
736;DHT22;352;48.626;9.238;2022-08-14T11:20:13;32.70;36.10
736;DHT22;352;48.626;9.238;2022-08-14T11:22:40;32.20;64.20
736;DHT22;352;48.626;9.238;2022-08-14T11:25:09;32.20;36.20
736;DHT22;352;48.626;9.238;2022-08-14T11:27:39;32.10;36.60
736;DHT22;352;48.626;9.238;2022-08-14T11:30:08;32.00;36.30
736;DHT22;352;48.626;9.238;2022-08-14T11:32:38;31.80;35.90
736;DHT22;352;48.626;9.238;2022-08-14T11:35:12;31.90;36.50
736;DHT22;352;48.626;9.238;2022-08-14T11:37:51;31.90;35.50
736;DHT22;352;48.626;9.238;2022-08-14T11:40:18;32.00;36.50
736;DHT22;352;48.626;9.238;2022-08-14T11:42:46;32.00;35.40
736;DHT22;352;48.626;9.238;2022-08-14T11:45:14;31.90;35.60
736;DHT22;352;48.626;9.238;2022-08-14T11:47:41;31.90;36.20
736;DHT22;352;48.626;9.238;2022-08-14T11:50:15;31.90;36.40
736;DHT22;352;48.626;9.238;2022-08-14T11:52:43;31.90;36.50
736;DHT22;352;48.626;9.238;2022-08-14T11:55:12;31.90;35.80
736;DHT22;352;48.626;9.238;2022-08-14T11:57:39;31.90;35.40
736;DHT22;352;48.626;9.238;2022-08-14T12:00:09;31.80;35.00
736;DHT22;352;48.626;9.238;2022-08-14T12:02:47;31.80;34.20
736;DHT22;352;48.626;9.238;2022-08-14T12:05:16;31.80;34.80
736;DHT22;352;48.626;9.238;2022-08-14T12:07:54;31.90;36.50
736;DHT22;352;48.626;9.238;2022-08-14T12:10:21;32.00;36.00
736;DHT22;352;48.626;9.238;2022-08-14T12:12:48;32.00;35.50
736;DHT22;352;48.626;9.238;2022-08-14T12:15:31;31.90;36.40
736;DHT22;352;48.626;9.238;2022-08-14T12:17:59;32.00;36.60
736;DHT22;352;48.626;9.238;2022-08-14T12:20:32;32.00;35.90
736;DHT22;352;48.626;9.238;2022-08-14T12:23:02;31.80;35.80
736;DHT22;352;48.626;9.238;2022-08-14T12:25:30;31.90;36.60
736;DHT22;352;48.626;9.238;2022-08-14T12:27:57;31.90;36.90
736;DHT22;352;48.626;9.238;2022-08-14T12:30:33;31.90;36.30
736;DHT22;352;48.626;9.238;2022-08-14T12:33:00;31.90;35.50
736;DHT22;352;48.626;9.238;2022-08-14T12:35:39;31.90;35.60
736;DHT22;352;48.626;9.238;2022-08-14T12:38:07;31.90;36.40
736;DHT22;352;48.626;9.238;2022-08-14T12:40:44;31.90;36.10
736;DHT22;352;48.626;9.238;2022-08-14T12:43:11;31.90;35.60
736;DHT22;352;48.626;9.238;2022-08-14T12:45:38;31.90;36.40
736;DHT22;352;48.626;9.238;2022-08-14T12:48:06;31.90;36.00
736;DHT22;352;48.626;9.238;2022-08-14T12:50:39;31.80;35.30
736;DHT22;352;48.626;9.238;2022-08-14T12:53:07;31.80;35.20
736;DHT22;352;48.626;9.238;2022-08-14T12:55:34;31.80;35.70
736;DHT22;352;48.626;9.238;2022-08-14T12:58:02;31.70;35.60
736;DHT22;352;48.626;9.238;2022-08-14T13:00:31;31.70;35.80
736;DHT22;352;48.626;9.238;2022-08-14T13:02:59;31.70;35.50
736;DHT22;352;48.626;9.238;2022-08-14T13:05:29;31.70;36.90
736;DHT22;352;48.626;9.238;2022-08-14T13:07:59;31.60;37.40
736;DHT22;352;48.626;9.238;2022-08-14T13:10:30;31.60;36.50
736;DHT22;352;48.626;9.238;2022-08-14T13:12:58;31.70;37.40
736;DHT22;352;48.626;9.238;2022-08-14T13:15:25;31.70;38.60
736;DHT22;352;48.626;9.238;2022-08-14T13:17:53;31.70;37.60
736;DHT22;352;48.626;9.238;2022-08-14T13:20:22;31.80;36.10
736;DHT22;352;48.626;9.238;2022-08-14T13:22:49;31.80;36.50
736;DHT22;352;48.626;9.238;2022-08-14T13:25:19;31.70;35.30
736;DHT22;352;48.626;9.238;2022-08-14T13:27:48;31.70;35.40
736;DHT22;352;48.626;9.238;2022-08-14T13:30:17;31.60;36.30
736;DHT22;352;48.626;9.238;2022-08-14T13:32:45;31.60;35.90
736;DHT22;352;48.626;9.238;2022-08-14T13:35:14;31.50;35.30
736;DHT22;352;48.626;9.238;2022-08-14T13:37:42;31.50;36.10
736;DHT22;352;48.626;9.238;2022-08-14T13:40:10;31.40;34.70
736;DHT22;352;48.626;9.238;2022-08-14T13:42:41;31.50;35.00
736;DHT22;352;48.626;9.238;2022-08-14T13:45:10;31.60;35.10
736;DHT22;352;48.626;9.238;2022-08-14T13:47:37;31.60;34.50
736;DHT22;352;48.626;9.238;2022-08-14T13:50:07;31.60;35.40
736;DHT22;352;48.626;9.238;2022-08-14T13:52:39;31.50;34.70
736;DHT22;352;48.626;9.238;2022-08-14T13:55:08;31.50;36.00
736;DHT22;352;48.626;9.238;2022-08-14T13:57:40;31.40;35.70
736;DHT22;352;48.626;9.238;2022-08-14T14:00:09;31.40;36.40
736;DHT22;352;48.626;9.238;2022-08-14T14:02:37;31.40;35.70
736;DHT22;352;48.626;9.238;2022-08-14T14:05:05;31.30;36.20
736;DHT22;352;48.626;9.238;2022-08-14T14:07:34;31.30;36.90
736;DHT22;352;48.626;9.238;2022-08-14T14:10:04;31.30;37.50
736;DHT22;352;48.626;9.238;2022-08-14T14:12:33;31.30;38.40
736;DHT22;352;48.626;9.238;2022-08-14T14:15:03;31.30;39.10
736;DHT22;352;48.626;9.238;2022-08-14T14:17:31;31.40;38.70
736;DHT22;352;48.626;9.238;2022-08-14T14:19:58;31.60;36.50
736;DHT22;352;48.626;9.238;2022-08-14T14:22:24;31.60;35.10
736;DHT22;352;48.626;9.238;2022-08-14T14:24:53;31.70;34.50
736;DHT22;352;48.626;9.238;2022-08-14T14:27:21;31.60;34.80
736;DHT22;352;48.626;9.238;2022-08-14T14:29:51;31.50;35.30
736;DHT22;352;48.626;9.238;2022-08-14T14:32:22;31.40;51.60
736;DHT22;352;48.626;9.238;2022-08-14T14:34:52;31.40;35.80
736;DHT22;352;48.626;9.238;2022-08-14T14:37:20;31.30;37.30
736;DHT22;352;48.626;9.238;2022-08-14T14:39:49;31.20;36.40
736;DHT22;352;48.626;9.238;2022-08-14T14:42:18;31.00;52.40
736;DHT22;352;48.626;9.238;2022-08-14T14:44:45;31.20;35.20
736;DHT22;352;48.626;9.238;2022-08-14T14:47:18;31.20;35.50
736;DHT22;352;48.626;9.238;2022-08-14T14:49:47;31.20;37.60
736;DHT22;352;48.626;9.238;2022-08-14T14:52:14;31.40;58.70
736;DHT22;352;48.626;9.238;2022-08-14T14:54:43;31.10;41.00
736;DHT22;352;48.626;9.238;2022-08-14T14:57:11;31.10;36.50
736;DHT22;352;48.626;9.238;2022-08-14T14:59:39;31.10;35.70
736;DHT22;352;48.626;9.238;2022-08-14T15:02:06;31.10;45.60
736;DHT22;352;48.626;9.238;2022-08-14T15:04:36;31.10;35.60
736;DHT22;352;48.626;9.238;2022-08-14T15:07:04;31.10;36.40
736;DHT22;352;48.626;9.238;2022-08-14T15:09:32;31.10;36.50
736;DHT22;352;48.626;9.238;2022-08-14T15:11:59;31.00;37.40
736;DHT22;352;48.626;9.238;2022-08-14T15:14:27;31.10;37.70
736;DHT22;352;48.626;9.238;2022-08-14T15:16:54;31.00;37.00
736;DHT22;352;48.626;9.238;2022-08-14T15:19:21;31.10;36.60
736;DHT22;352;48.626;9.238;2022-08-14T15:21:49;31.10;37.00
736;DHT22;352;48.626;9.238;2022-08-14T15:24:16;31.10;37.00
736;DHT22;352;48.626;9.238;2022-08-14T15:26:42;31.10;38.20
736;DHT22;352;48.626;9.238;2022-08-14T15:29:09;31.10;36.70
736;DHT22;352;48.626;9.238;2022-08-14T15:31:40;31.00;37.80
736;DHT22;352;48.626;9.238;2022-08-14T15:34:09;31.00;37.50
736;DHT22;352;48.626;9.238;2022-08-14T15:36:41;30.90;39.70
736;DHT22;352;48.626;9.238;2022-08-14T15:39:10;31.00;37.00
736;DHT22;352;48.626;9.238;2022-08-14T15:41:37;31.00;37.10
736;DHT22;352;48.626;9.238;2022-08-14T15:44:05;31.10;37.40
736;DHT22;352;48.626;9.238;2022-08-14T15:46:32;31.10;36.10
736;DHT22;352;48.626;9.238;2022-08-14T15:48:59;30.90;38.30
736;DHT22;352;48.626;9.238;2022-08-14T15:51:26;31.00;36.20
736;DHT22;352;48.626;9.238;2022-08-14T15:53:55;30.90;37.10
736;DHT22;352;48.626;9.238;2022-08-14T15:56:24;31.00;37.70
736;DHT22;352;48.626;9.238;2022-08-14T15:58:51;30.90;39.10
736;DHT22;352;48.626;9.238;2022-08-14T16:01:17;30.80;38.90
736;DHT22;352;48.626;9.238;2022-08-14T16:03:48;30.70;38.60
736;DHT22;352;48.626;9.238;2022-08-14T16:06:19;30.60;37.90
736;DHT22;352;48.626;9.238;2022-08-14T16:08:48;30.60;37.90
736;DHT22;352;48.626;9.238;2022-08-14T16:11:15;30.50;39.10
736;DHT22;352;48.626;9.238;2022-08-14T16:13:43;30.50;40.60
736;DHT22;352;48.626;9.238;2022-08-14T16:16:14;30.40;37.60
736;DHT22;352;48.626;9.238;2022-08-14T16:18:41;30.50;38.80
736;DHT22;352;48.626;9.238;2022-08-14T16:21:10;30.30;63.70
736;DHT22;352;48.626;9.238;2022-08-14T16:23:39;30.40;40.60
736;DHT22;352;48.626;9.238;2022-08-14T16:26:09;30.30;40.50
736;DHT22;352;48.626;9.238;2022-08-14T16:28:37;30.40;39.30
736;DHT22;352;48.626;9.238;2022-08-14T16:31:06;30.30;39.80
736;DHT22;352;48.626;9.238;2022-08-14T16:33:32;30.30;42.60
736;DHT22;352;48.626;9.238;2022-08-14T16:36:00;30.30;40.20
736;DHT22;352;48.626;9.238;2022-08-14T16:38:28;30.20;45.40
736;DHT22;352;48.626;9.238;2022-08-14T16:41:00;30.10;39.80
736;DHT22;352;48.626;9.238;2022-08-14T16:43:42;30.10;40.40
736;DHT22;352;48.626;9.238;2022-08-14T16:46:13;30.00;40.40
736;DHT22;352;48.626;9.238;2022-08-14T16:48:40;29.80;64.70
736;DHT22;352;48.626;9.238;2022-08-14T16:51:08;30.00;43.60
736;DHT22;352;48.626;9.238;2022-08-14T16:53:35;29.70;68.10
736;DHT22;352;48.626;9.238;2022-08-14T16:56:14;29.80;46.00
736;DHT22;352;48.626;9.238;2022-08-14T17:01:15;29.60;49.00
736;DHT22;352;48.626;9.238;2022-08-14T17:03:55;29.50;47.40
736;DHT22;352;48.626;9.238;2022-08-14T17:06:53;29.50;48.80
736;DHT22;352;48.626;9.238;2022-08-14T17:09:41;29.40;48.00